Time;durP1;ratioP1;P1;durP2;ratioP2;P2;SDS_P1;SDS_P2;PMS_P1;PMS_P2;Temp;Humidity;BMP_temperature;BMP_pressure;BME280_temperature;BME280_humidity;BME280_pressure;Samples;Min_cycle;Max_cycle;Signal;HPM_P1;HPM_P2
2023/05/08 00:08:04;;;;;;;6.60;5.60;;;;;;;2.04;94.28;100710.56;436471;1254;139662;-59
2023/05/08 00:18:11;;;;;;;7.10;5.00;;;;;;;2.01;94.86;100713.52;436479;1251;140115;-59
2023/05/08 00:28:17;;;;;;;7.20;5.10;;;;;;;2.02;95.02;100714.55;436295;1251;142411;-59
2023/05/08 00:38:22;;;;;;;6.80;5.40;;;;;;;1.92;95.14;100718.80;436689;1251;139627;-60
2023/05/08 00:48:31;;;;;;;6.60;4.80;;;;;;;1.87;95.42;100721.09;436755;1254;139409;-60
2023/05/08 00:58:37;;;;;;;6.60;5.10;;;;;;;1.73;94.97;100733.14;436732;1254;140022;-58
2023/05/08 01:08:44;;;;;;;5.30;4.00;;;;;;;1.61;95.06;100738.41;436502;1251;140830;-60
2023/05/08 01:18:59;;;;;;;5.30;4.20;;;;;;;1.49;95.39;100746.80;436482;1254;139748;-60
2023/05/08 01:29:37;;;;;;;6.70;5.30;;;;;;;1.46;95.65;100753.21;436803;1251;140208;-59
2023/05/08 01:39:47;;;;;;;6.00;5.40;;;;;;;1.40;95.92;100757.05;436291;1254;140123;-61
2023/05/08 01:50:00;;;;;;;6.10;4.40;;;;;;;1.36;96.19;100756.73;436907;1250;139080;-60
2023/05/08 02:00:09;;;;;;;7.30;5.50;;;;;;;1.26;96.44;100764.73;436287;1251;140059;-59
2023/05/08 02:10:16;;;;;;;5.90;5.30;;;;;;;1.18;96.70;100765.47;436825;1250;139715;-60
2023/05/08 02:20:21;;;;;;;;;;;;;;;1.13;97.31;100768.95;437046;1251;140073;-60
2023/05/08 02:30:28;;;;;;;7.70;5.20;;;;;;;1.18;97.36;100772.38;437148;1254;126969;-59
2023/05/08 02:40:34;;;;;;;6.40;4.80;;;;;;;1.13;97.69;100783.45;437208;1254;140657;-60
2023/05/08 02:50:46;;;;;;;7.10;5.50;;;;;;;1.10;97.94;100786.73;437072;1254;139544;-59
2023/05/08 03:01:05;;;;;;;6.80;5.60;;;;;;;1.11;98.02;100785.70;437107;1251;139063;-58
2023/05/08 03:11:16;;;;;;;6.90;5.80;;;;;;;1.11;98.09;100779.66;437391;1254;139242;-60
2023/05/08 03:21:24;;;;;;;8.70;6.20;;;;;;;1.13;98.21;100783.80;436753;1254;140929;-60
2023/05/08 03:31:32;;;;;;;13.00;7.60;;;;;;;1.28;98.61;100789.92;436438;1250;139856;-59
2023/05/08 03:41:38;;;;;;;8.70;6.60;;;;;;;1.41;98.36;100790.34;436022;1251;140653;-59
2023/05/08 03:51:44;;;;;;;8.90;6.50;;;;;;;1.61;98.53;100787.79;436253;1251;140492;-60
2023/05/08 04:01:58;;;;;;;8.90;7.10;;;;;;;1.88;98.29;100791.55;436393;1253;141308;-59
2023/05/08 04:12:09;;;;;;;13.10;6.80;;;;;;;2.25;97.78;100802.08;436367;1255;140358;-59
2023/05/08 04:22:19;;;;;;;5.80;4.90;;;;;;;4.83;97.42;100813.51;436341;1251;141025;-60
2023/05/08 04:32:26;;;;;;;6.60;5.00;;;;;;;9.83;85.98;100818.94;436169;1251;140258;-60
2023/05/08 04:42:32;;;;;;;7.40;5.70;;;;;;;6.86;82.34;100838.88;436224;1256;141285;-59
2023/05/08 04:52:38;;;;;;;6.90;5.20;;;;;;;5.90;84.88;100845.59;436349;1251;139520;-60
2023/05/08 05:02:43;;;;;;;4.70;3.90;;;;;;;12.59;81.02;100843.04;436417;1251;139877;-59
2023/05/08 05:12:49;;;;;;;4.10;3.50;;;;;;;19.76;68.35;100839.31;436366;1250;140614;-59
2023/05/08 05:22:56;;;;;;;5.70;3.90;;;;;;;22.96;53.31;100844.67;436277;1251;139055;-60
2023/05/08 05:33:02;;;;;;;4.20;3.50;;;;;;;25.66;45.71;100846.79;436954;1254;139187;-60
2023/05/08 05:43:07;;;;;;;3.10;2.80;;;;;;;27.00;41.03;100847.45;436605;1251;140498;-60
2023/05/08 05:53:14;;;;;;;3.20;3.00;;;;;;;26.66;35.36;100858.03;436682;1251;138687;-59
2023/05/08 06:03:19;;;;;;;2.50;2.30;;;;;;;26.72;33.47;100855.96;436296;1251;139746;-58
2023/05/08 06:13:25;;;;;;;3.20;2.60;;;;;;;29.98;32.02;100855.20;436394;1251;139409;-60
2023/05/08 06:23:31;;;;;;;2.50;2.30;;;;;;;30.67;28.40;100862.73;436567;1251;138848;-59
2023/05/08 06:33:37;;;;;;;1.40;1.40;;;;;;;31.41;27.52;100865.64;439207;1253;139128;-59
2023/05/08 06:43:43;;;;;;;2.30;1.60;;;;;;;33.63;25.94;100864.91;436469;1255;139064;-58
2023/05/08 06:53:49;;;;;;;2.50;2.30;;;;;;;35.72;23.86;100869.61;436471;1255;139396;-60
2023/05/08 07:03:54;;;;;;;1.70;1.60;;;;;;;37.36;22.76;100877.62;435581;1254;139338;-59
2023/05/08 07:14:00;;;;;;;1.70;1.60;;;;;;;36.62;21.76;100884.70;435576;1253;320291;-59
2023/05/08 07:24:08;;;;;;;1.90;1.80;;;;;;;37.00;20.65;100892.27;436067;1253;139498;-59
2023/05/08 07:34:13;;;;;;;2.10;2.00;;;;;;;36.94;19.63;100896.02;436307;1255;139358;-60
2023/05/08 07:44:19;;;;;;;1.80;1.70;;;;;;;36.97;19.26;100899.91;436140;1251;138730;-60
2023/05/08 07:54:25;;;;;;;2.20;2.10;;;;;;;36.26;19.12;100893.39;435975;1252;139820;-59
2023/05/08 08:04:31;;;;;;;2.10;2.00;;;;;;;35.03;19.60;100899.11;436414;1252;139479;-60
2023/05/08 08:14:37;;;;;;;3.40;3.10;;;;;;;29.41;21.02;100897.88;436867;1254;139562;-60
2023/05/08 08:24:43;;;;;;;2.50;2.30;;;;;;;21.59;25.69;100903.59;436500;1254;138574;-60
2023/05/08 08:34:49;;;;;;;4.10;2.70;;;;;;;18.40;29.13;100898.83;436265;1256;139198;-60
2023/05/08 08:44:55;;;;;;;2.60;2.20;;;;;;;17.06;31.87;100898.16;436657;1256;138751;-60
2023/05/08 08:55:02;;;;;;;2.30;1.80;;;;;;;16.69;32.84;100897.38;436142;1256;138702;-60
2023/05/08 09:05:11;;;;;;;4.80;2.60;;;;;;;15.76;33.87;100903.15;436398;1250;138670;-60
2023/05/08 09:15:17;;;;;;;3.50;2.50;;;;;;;15.22;34.54;100897.70;436534;1255;140474;-60
2023/05/08 09:25:24;;;;;;;2.50;2.30;;;;;;;15.73;34.37;100890.64;436364;1254;139347;-60
2023/05/08 09:35:37;;;;;;;3.70;1.70;;;;;;;15.20;34.50;100888.82;436331;1254;139460;-60
2023/05/08 09:45:43;;;;;;;3.60;2.00;;;;;;;14.35;34.74;100883.36;436177;1256;139901;-60
2023/05/08 09:55:49;;;;;;;2.40;1.70;;;;;;;14.05;35.16;100880.88;436484;1254;139402;-59
2023/05/08 10:05:55;;;;;;;2.60;2.40;;;;;;;13.94;35.87;100869.02;436977;1251;138916;-59
2023/05/08 10:16:01;;;;;;;3.20;2.50;;;;;;;13.83;36.30;100870.70;437067;1254;144294;-60
2023/05/08 10:26:11;;;;;;;3.40;1.60;;;;;;;13.47;36.55;100869.47;437029;1254;139055;-60
2023/05/08 10:36:17;;;;;;;2.60;2.40;;;;;;;13.05;36.95;100862.63;436395;1254;138892;-59
2023/05/08 10:46:42;;;;;;;2.30;1.60;;;;;;;12.96;37.20;100865.05;436212;1254;139667;-59
2023/05/08 10:56:49;;;;;;;4.00;2.20;;;;;;;12.68;36.94;100861.08;436258;1254;140101;-59
2023/05/08 11:06:57;;;;;;;1.70;1.40;;;;;;;12.71;37.48;100851.25;436417;1251;138971;-59
2023/05/08 11:17:08;;;;;;;;;;;;;;;12.71;37.19;100842.46;436567;1254;140068;-59
2023/05/08 11:27:14;;;;;;;7.30;2.40;;;;;;;12.89;37.13;100832.02;436604;1253;126052;-61
2023/05/08 11:37:22;;;;;;;3.20;2.20;;;;;;;12.73;37.25;100835.34;436514;1254;139877;-61
2023/05/08 11:47:37;;;;;;;3.80;1.90;;;;;;;12.85;37.01;100827.66;436859;1254;139208;-60
2023/05/08 11:57:43;;;;;;;2.70;1.80;;;;;;;12.58;36.77;100824.15;436503;1254;141079;-59
2023/05/08 12:07:49;;;;;;;2.80;2.20;;;;;;;12.54;37.12;100815.08;436409;1254;138696;-60
2023/05/08 12:18:03;;;;;;;3.90;2.50;;;;;;;12.51;37.53;100801.70;436660;1251;139260;-60
2023/05/08 12:28:10;;;;;;;3.40;2.10;;;;;;;12.58;37.94;100797.46;436814;1254;138837;-60
2023/05/08 12:38:16;;;;;;;3.60;1.80;;;;;;;12.46;37.87;100794.22;436501;1254;139146;-60
2023/05/08 12:48:21;;;;;;;2.80;1.80;;;;;;;12.50;37.67;100796.48;436603;1251;140129;-59
2023/05/08 12:58:28;;;;;;;2.00;1.70;;;;;;;12.52;37.85;100793.73;436002;1251;139323;-60
2023/05/08 13:08:35;;;;;;;2.30;2.10;;;;;;;12.77;37.87;100781.71;436197;1254;139959;-60
2023/05/08 13:18:41;;;;;;;3.30;1.80;;;;;;;12.96;37.58;100776.45;436563;1252;139313;-59
2023/05/08 13:28:47;;;;;;;3.60;2.10;;;;;;;12.88;37.68;100773.39;436323;1253;139583;-59
2023/05/08 13:38:53;;;;;;;2.10;1.60;;;;;;;12.88;37.60;100768.82;436372;1251;139922;-60
2023/05/08 13:48:59;;;;;;;1.60;1.40;;;;;;;12.73;37.50;100765.05;436465;1252;139110;-60
2023/05/08 13:59:05;;;;;;;2.20;2.00;;;;;;;12.91;37.01;100752.84;436109;1251;139307;-59
2023/05/08 14:09:10;;;;;;;2.40;2.20;;;;;;;13.34;36.61;100740.40;436137;1254;139432;-59
2023/05/08 14:19:16;;;;;;;2.70;1.70;;;;;;;13.46;37.00;100736.06;436723;1250;139124;-59
2023/05/08 14:29:22;;;;;;;2.60;1.80;;;;;;;13.30;37.03;100736.63;436642;1251;140083;-61
2023/05/08 14:39:28;;;;;;;1.60;1.40;;;;;;;13.38;37.22;100743.36;436756;1251;139182;-60
2023/05/08 14:49:34;;;;;;;2.20;2.10;;;;;;;12.99;37.08;100746.95;436394;1250;139494;-60
2023/05/08 14:59:59;;;;;;;2.00;1.60;;;;;;;12.81;37.47;100738.79;436119;1250;139075;-60
2023/05/08 15:10:07;;;;;;;3.20;1.30;;;;;;;12.75;37.39;100738.73;436222;1253;139359;-59
2023/05/08 15:20:13;;;;;;;1.60;1.50;;;;;;;12.80;37.38;100729.71;437398;1250;138728;-60
2023/05/08 15:30:19;;;;;;;2.20;1.20;;;;;;;12.96;37.08;100727.75;436241;1251;139178;-60
2023/05/08 15:40:25;;;;;;;1.90;1.70;;;;;;;12.94;37.44;100723.84;436221;1250;139893;-60
2023/05/08 15:50:31;;;;;;;2.40;1.40;;;;;;;12.69;37.28;100725.90;436407;1251;138674;-59
2023/05/08 16:00:37;;;;;;;1.60;1.30;;;;;;;12.45;37.30;100718.43;436272;1254;139425;-60
2023/05/08 16:10:50;;;;;;;1.70;1.60;;;;;;;12.49;37.29;100717.01;436072;1253;139407;-60
2023/05/08 16:20:55;;;;;;;6.70;1.80;;;;;;;12.22;37.07;100716.30;436314;1253;140488;-58
2023/05/08 16:31:03;;;;;;;2.40;1.60;;;;;;;12.12;37.17;100714.20;436409;1251;138632;-59
2023/05/08 16:41:10;;;;;;;2.30;1.60;;;;;;;12.34;37.49;100709.02;436594;1251;138686;-60
2023/05/08 16:51:15;;;;;;;1.60;1.50;;;;;;;12.35;37.55;100709.66;436352;1254;138672;-59
2023/05/08 17:01:21;;;;;;;5.40;1.60;;;;;;;12.79;36.92;100713.80;436547;1253;141259;-60
2023/05/08 17:11:27;;;;;;;1.50;1.40;;;;;;;12.46;36.70;100711.49;436612;1250;139331;-61
2023/05/08 17:21:33;;;;;;;3.00;1.40;;;;;;;12.65;36.72;100708.21;436411;1251;139104;-60
2023/05/08 17:31:38;;;;;;;2.50;1.60;;;;;;;12.12;37.20;100715.40;437115;1251;139534;-62
2023/05/08 17:41:44;;;;;;;1.60;1.50;;;;;;;11.61;37.95;100719.20;436627;1250;139632;-60
2023/05/08 17:51:50;;;;;;;4.50;1.90;;;;;;;11.14;38.83;100716.96;436855;1251;140058;-61
2023/05/08 18:01:56;;;;;;;4.20;2.80;;;;;;;10.72;39.59;100723.61;436380;1251;138755;-60
2023/05/08 18:12:02;;;;;;;2.50;2.10;;;;;;;10.34;40.30;100731.98;436270;1250;141204;-61
2023/05/08 18:22:08;;;;;;;6.40;3.20;;;;;;;9.96;40.96;100740.94;437079;1251;139916;-60
2023/05/08 18:32:13;;;;;;;6.50;3.70;;;;;;;9.63;41.79;100752.30;436688;1251;140157;-60
2023/05/08 18:42:19;;;;;;;5.40;3.30;;;;;;;9.35;42.62;100756.42;435909;1250;140745;-59
2023/05/08 18:52:25;;;;;;;5.20;4.10;;;;;;;9.05;43.17;100764.04;436423;1251;138505;-61
2023/05/08 19:02:31;;;;;;;6.70;4.30;;;;;;;8.71;44.54;100774.58;436195;1253;139454;-60
2023/05/08 19:12:36;;;;;;;12.30;6.20;;;;;;;8.34;46.94;100779.52;437459;1251;183366;-60
2023/05/08 19:22:42;;;;;;;15.40;6.30;;;;;;;7.89;48.71;100785.79;436544;1254;139143;-60
2023/05/08 19:32:49;;;;;;;9.80;5.40;;;;;;;7.43;50.34;100781.87;436799;1251;139792;-60
2023/05/08 19:42:55;;;;;;;10.50;6.10;;;;;;;7.07;52.13;100786.12;436530;1250;138286;-59
2023/05/08 19:53:01;;;;;;;9.90;6.40;;;;;;;6.72;53.56;100780.34;436395;1254;138505;-60
2023/05/08 20:03:06;;;;;;;13.80;8.80;;;;;;;6.45;54.04;100780.23;436199;1251;138634;-60
2023/05/08 20:13:12;;;;;;;12.30;8.30;;;;;;;6.18;55.18;100773.13;437000;1253;138468;-60
2023/05/08 20:23:18;;;;;;;14.70;8.20;;;;;;;5.83;56.59;100770.70;436848;1250;139658;-60
2023/05/08 20:33:24;;;;;;;14.60;8.30;;;;;;;5.47;57.97;100773.98;436490;1251;139962;-60
2023/05/08 20:43:30;;;;;;;16.50;11.40;;;;;;;5.14;59.09;100774.23;436310;1254;139722;-59
2023/05/08 20:53:36;;;;;;;14.90;11.90;;;;;;;4.88;60.33;100771.48;436547;1250;139406;-60
2023/05/08 21:03:41;;;;;;;16.60;11.30;;;;;;;4.62;60.77;100772.04;436084;1250;140823;-61
2023/05/08 21:13:47;;;;;;;19.60;13.50;;;;;;;4.37;62.03;100766.47;436301;1250;139429;-60
2023/05/08 21:23:53;;;;;;;21.40;14.80;;;;;;;4.25;62.85;100764.77;436613;1250;141490;-59
2023/05/08 21:33:59;;;;;;;21.00;14.30;;;;;;;4.21;63.39;100756.34;436557;1254;140967;-60
2023/05/08 21:44:05;;;;;;;27.60;17.70;;;;;;;4.31;63.48;100750.63;436393;1254;140659;-60
2023/05/08 21:54:11;;;;;;;22.00;14.20;;;;;;;4.22;64.41;100754.43;436340;1254;140650;-60
2023/05/08 22:04:17;;;;;;;19.90;13.80;;;;;;;4.11;64.49;100747.88;436049;1250;141155;-60
2023/05/08 22:14:23;;;;;;;21.30;14.50;;;;;;;3.84;64.93;100742.63;436394;1254;139400;-60
2023/05/08 22:24:29;;;;;;;21.90;15.10;;;;;;;3.57;65.52;100745.16;436538;1251;139696;-60
2023/05/08 22:34:35;;;;;;;28.20;16.50;;;;;;;3.33;66.52;100741.06;436572;1251;139814;-60
2023/05/08 22:44:41;;;;;;;21.50;15.30;;;;;;;3.07;66.88;100743.51;436738;1251;139314;-60
2023/05/08 22:54:47;;;;;;;25.40;16.40;;;;;;;2.87;67.50;100737.39;436849;1250;140777;-61
2023/05/08 23:04:55;;;;;;;26.60;16.80;;;;;;;2.71;68.46;100732.75;436463;1250;140244;-60
2023/05/08 23:15:00;;;;;;;22.90;15.20;;;;;;;2.56;69.04;100733.81;436880;1251;139998;-61
2023/05/08 23:25:11;;;;;;;18.80;14.20;;;;;;;2.38;69.33;100733.51;436960;1251;139706;-61
2023/05/08 23:35:17;;;;;;;25.50;15.50;;;;;;;2.24;69.82;100726.40;437408;1251;140201;-60
2023/05/08 23:45:23;;;;;;;22.40;15.70;;;;;;;2.12;70.53;100723.96;436680;1250;139349;-60
2023/05/08 23:55:30;;;;;;;22.80;15.20;;;;;;;2.05;70.87;100727.66;436921;1250;139853;-60
